createdAt,value
2023-01-11T01:15:46.799Z,98493.25
2023-01-11T01:18:13.858Z,98489.73
2023-01-11T01:20:40.832Z,98491.63
2023-01-11T01:23:07.976Z,98490.59
2023-01-11T01:25:37.187Z,98493.99
2023-01-11T01:28:04.436Z,98507.83
2023-01-11T01:30:31.368Z,98517.68
2023-01-11T01:32:58.336Z,98517.71
2023-01-11T01:35:25.249Z,98517.51
2023-01-11T01:37:52.195Z,98518.63
2023-01-11T01:40:19.203Z,98514.64
2023-01-11T01:42:46.177Z,98518.41
2023-01-11T01:45:24.514Z,98513.97
2023-01-11T01:47:58.407Z,98503.69
2023-01-11T01:50:41.589Z,98504.33
2023-01-11T01:53:13.056Z,98497.11
2023-01-11T01:55:43.374Z,98498.04
2023-01-11T01:58:11.997Z,98498.06
2023-01-11T02:00:40.495Z,98500.98
2023-01-11T02:03:07.486Z,98500.08
2023-01-11T02:05:34.526Z,98501.80
2023-01-11T02:08:01.510Z,98502.02
2023-01-11T02:10:29.133Z,98499.92
2023-01-11T02:12:59.075Z,98502.58
2023-01-11T02:15:26.158Z,98510.14
2023-01-11T02:17:53.181Z,98511.80
2023-01-11T02:20:42.233Z,98503.73
2023-01-11T02:23:36.665Z,98501.13
2023-01-11T02:26:36.137Z,98503.41
2023-01-11T02:29:38.678Z,98504.39
2023-01-11T02:32:27.248Z,98502.26
2023-01-11T02:35:07.830Z,98495.62
2023-01-11T02:38:01.913Z,98494.08
2023-01-11T02:40:51.130Z,98503.23
2023-01-11T02:43:47.547Z,98511.45
2023-01-11T02:46:23.366Z,98513.49
2023-01-11T02:49:01.980Z,98518.65
2023-01-11T02:51:35.115Z,98528.12
2023-01-11T02:54:04.658Z,98532.35
2023-01-11T02:56:33.812Z,98537.06
2023-01-11T02:59:01.725Z,98537.06
2023-01-11T03:01:28.757Z,98543.52
2023-01-11T03:03:56.259Z,98542.35
2023-01-11T03:06:27.621Z,98542.68
2023-01-11T03:09:01.377Z,98540.05
2023-01-11T03:12:09.361Z,98536.04
2023-01-11T03:14:49.232Z,98529.61
2023-01-11T03:17:22.892Z,98536.83
2023-01-11T03:19:54.658Z,98540.56
2023-01-11T03:22:59.293Z,98539.39
2023-01-11T03:25:43.070Z,98536.65
2023-01-11T03:28:36.179Z,98537.50
2023-01-11T03:31:21.496Z,98545.05
2023-01-11T03:34:02.852Z,98546.23
2023-01-11T03:36:42.201Z,98552.83
2023-01-11T03:39:19.754Z,98556.84
2023-01-11T03:41:46.847Z,98562.31
2023-01-11T03:44:14.635Z,98560.90
2023-01-11T03:46:44.745Z,98565.04
2023-01-11T03:49:14.441Z,98570.43
2023-01-11T03:51:45.255Z,98575.51
2023-01-11T03:54:14.394Z,98581.56
2023-01-11T03:57:02.351Z,98573.97
2023-01-11T03:59:29.427Z,98569.91
2023-01-11T04:01:56.468Z,98577.71
2023-01-11T04:04:23.794Z,98571.80
2023-01-11T04:06:50.921Z,98569.50
2023-01-11T04:09:17.823Z,98575.33
2023-01-11T04:11:45.089Z,98568.20
2023-01-11T04:14:12.025Z,98564.27
2023-01-11T04:16:39.001Z,98560.15
2023-01-11T04:19:05.963Z,98556.92
2023-01-11T04:21:33.096Z,98554.47
2023-01-11T04:23:59.951Z,98557.35
2023-01-11T04:26:27.048Z,98559.39
2023-01-11T04:28:54.514Z,98557.97
2023-01-11T04:31:21.656Z,98560.42
2023-01-11T04:33:48.605Z,98567.08
2023-01-11T04:36:15.657Z,98574.77
2023-01-11T04:38:42.629Z,98572.83
2023-01-11T04:41:28.094Z,98576.10
2023-01-11T04:43:56.390Z,98580.45
2023-01-11T04:46:23.947Z,98589.88
2023-01-11T04:48:51.244Z,98591.05
2023-01-11T04:51:18.210Z,98581.91
2023-01-11T04:53:47.293Z,98580.13
2023-01-11T04:56:14.290Z,98578.19
2023-01-11T04:58:41.313Z,98571.55
2023-01-11T05:01:10.112Z,98568.02
2023-01-11T05:03:37.171Z,98564.23
2023-01-11T07:23:29.305Z,98664.96
2023-01-11T07:25:56.350Z,98664.82
2023-01-11T07:28:23.203Z,98676.80
2023-01-11T07:30:58.563Z,98677.95
2023-01-11T07:33:26.156Z,98680.77
2023-01-11T07:35:53.181Z,98675.02
2023-01-11T07:38:20.125Z,98670.58
2023-01-11T07:40:47.063Z,98672.26
2023-01-11T07:43:19.142Z,98673.17
2023-01-11T07:45:49.593Z,98669.79
2023-01-11T07:48:24.853Z,98671.48
2023-01-11T07:50:52.685Z,98675.28
2023-01-11T07:53:19.823Z,98674.27
2023-01-11T07:55:47.515Z,98671.46
2023-01-11T07:58:14.723Z,98678.78
2023-01-11T08:00:41.859Z,98681.57
2023-01-11T08:03:09.128Z,98687.00
2023-01-11T08:05:36.371Z,98687.81
2023-01-11T08:08:03.916Z,98685.23
2023-01-11T08:10:30.805Z,98681.27
2023-01-11T08:13:16.952Z,98681.92
2023-01-11T08:15:44.007Z,98682.55
2023-01-11T08:18:12.102Z,98689.84
2023-01-11T08:20:39.967Z,98689.98
2023-01-11T08:23:08.235Z,98693.74
2023-01-11T08:25:35.189Z,98695.60
2023-01-11T08:28:02.918Z,98700.96
2023-01-11T08:30:29.982Z,98702.67
2023-01-11T08:32:57.722Z,98705.20
2023-01-11T08:35:25.689Z,98709.71
2023-01-11T08:37:52.736Z,98709.37
2023-01-11T08:40:21.061Z,98709.96
2023-01-11T08:42:58.585Z,98713.83
2023-01-11T08:45:25.737Z,98715.34
2023-01-11T08:47:57.442Z,98717.16
2023-01-11T08:50:26.761Z,98707.88
2023-01-11T08:52:53.941Z,98711.09
2023-01-11T08:55:20.795Z,98714.95
2023-01-11T08:57:47.740Z,98712.77
2023-01-11T09:00:15.638Z,98714.45
2023-01-11T09:02:42.723Z,98714.45
2023-01-11T09:05:12.278Z,98712.42
2023-01-11T09:07:41.480Z,98709.57
2023-01-11T09:10:09.011Z,98706.48
2023-01-11T09:12:36.146Z,98705.51
2023-01-11T09:15:06.205Z,98704.38
2023-01-11T09:17:33.855Z,98712.39
2023-01-11T09:20:00.790Z,98712.56
2023-01-11T09:22:27.667Z,98708.27
2023-01-11T09:24:55.624Z,98696.48
2023-01-11T09:27:22.427Z,98694.13
2023-01-11T09:29:49.369Z,98687.30
2023-01-11T09:32:16.372Z,98685.14
2023-01-11T09:34:46.686Z,98679.69
2023-01-11T09:37:14.567Z,98676.83
2023-01-11T09:39:42.316Z,98682.94
2023-01-11T09:42:39.163Z,98689.41
2023-01-11T09:45:18.871Z,98692.47
2023-01-11T09:48:11.809Z,98692.99
2023-01-11T09:50:45.845Z,98704.67
2023-01-11T09:53:18.728Z,98702.34
2023-01-11T09:55:47.245Z,98702.57
2023-01-11T09:58:29.405Z,98706.17
2023-01-11T10:01:22.101Z,98701.30
2023-01-11T10:04:20.609Z,98692.20
2023-01-11T10:06:58.845Z,98694.56
2023-01-11T13:28:39.328Z,98604.52
2023-01-11T13:31:08.091Z,98608.54
2023-01-11T13:33:36.277Z,98619.02
2023-01-11T13:36:22.808Z,98619.88
2023-01-11T13:45:17.283Z,98598.58
2023-01-11T13:47:47.240Z,98604.94
2023-01-11T13:50:34.863Z,98607.91
2023-01-11T13:53:06.274Z,98622.56
2023-01-11T13:56:19.361Z,98629.38
2023-01-11T13:59:24.944Z,98635.38
2023-01-11T14:02:04.979Z,98623.79
2023-01-11T14:04:50.357Z,98625.95
2023-01-11T14:08:01.179Z,98631.73
2023-01-11T14:10:46.373Z,98639.80
2023-01-11T14:13:48.359Z,98644.83
2023-01-11T14:16:19.500Z,98666.05
2023-01-11T14:18:51.808Z,98660.23
2023-01-11T14:21:23.839Z,98645.88
2023-01-11T14:23:52.216Z,98645.19
2023-01-11T14:26:57.333Z,98639.30
2023-01-11T14:29:52.299Z,98639.00
2023-01-11T14:32:35.376Z,98639.95
2023-01-11T14:35:34.353Z,98632.20
2023-01-11T14:38:32.594Z,98628.35
2023-01-11T14:41:45.921Z,98629.33
2023-01-11T14:44:37.954Z,98637.30
2023-01-11T14:47:42.217Z,98639.90
2023-01-11T14:50:20.172Z,98642.48
2023-01-11T14:52:58.087Z,98640.85
2023-01-11T14:55:30.345Z,98649.27
2023-01-11T14:57:57.443Z,98643.79
2023-01-11T15:00:24.389Z,98649.54
2023-01-11T15:03:01.115Z,98641.73
2023-01-11T15:05:31.663Z,98646.73
2023-01-11T15:08:23.944Z,98650.20
2023-01-11T15:11:07.865Z,98639.54
2023-01-11T15:13:44.949Z,98650.77
2023-01-11T15:16:33.812Z,98652.94
2023-01-11T15:19:06.966Z,98647.50
2023-01-11T15:21:35.041Z,98653.23
2023-01-11T15:24:01.953Z,98656.88
2023-01-11T15:26:29.187Z,98654.31
2023-01-11T15:28:59.878Z,98653.73
2023-01-11T15:31:48.293Z,98652.73
2023-01-11T15:34:27.704Z,98655.53
2023-01-11T15:37:02.694Z,98664.81
2023-01-11T15:40:14.113Z,98664.91
2023-01-11T15:42:54.131Z,98667.46
2023-01-11T15:45:27.697Z,98667.69
2023-01-11T15:48:06.941Z,98663.25
2023-01-11T15:50:58.504Z,98670.56
2023-01-11T15:53:33.967Z,98674.59
2023-01-11T15:56:21.093Z,98670.06
2023-01-11T15:59:14.337Z,98667.56
2023-01-11T16:02:05.645Z,98655.73
2023-01-11T18:57:10.541Z,98617.19
2023-01-11T18:59:37.791Z,98615.30
2023-01-11T19:02:24.552Z,98607.48
2023-01-11T19:04:52.341Z,98614.77
2023-01-11T19:07:19.422Z,98614.84
2023-01-11T19:09:46.506Z,98619.39
2023-01-11T19:12:16.031Z,98636.66
2023-01-11T19:14:43.310Z,98638.70
2023-01-11T19:17:13.510Z,98634.91
2023-01-11T19:19:40.799Z,98633.52
2023-01-11T19:22:10.459Z,98633.24
2023-01-11T19:24:37.690Z,98632.58
2023-01-11T19:27:04.876Z,98633.05
2023-01-11T19:29:31.988Z,98637.10
2023-01-11T19:31:59.217Z,98635.38
2023-01-11T19:34:26.315Z,98632.89
2023-01-11T19:36:53.477Z,98639.91
2023-01-11T19:39:20.511Z,98635.63
2023-01-11T19:42:03.333Z,98628.77
2023-01-11T19:44:32.076Z,98634.98
2023-01-11T19:47:10.935Z,98640.08
2023-01-11T19:49:40.134Z,98650.13
2023-01-11T19:52:13.551Z,98657.03
2023-01-11T19:54:44.207Z,98656.00
2023-01-11T19:57:12.629Z,98651.64
2023-01-11T19:59:39.866Z,98643.98
2023-01-11T20:02:07.652Z,98640.84
2023-01-11T20:04:35.097Z,98644.08
2023-01-11T20:07:02.276Z,98655.55
2023-01-11T20:09:29.806Z,98663.83
2023-01-11T20:11:59.029Z,98652.30
2023-01-11T20:20:19.736Z,98612.24
2023-01-11T20:22:46.756Z,98595.55
2023-01-11T20:25:13.984Z,98590.39
2023-01-11T20:27:41.132Z,98600.66
2023-01-11T20:30:09.682Z,98640.06
2023-01-11T20:32:41.830Z,98642.42
2023-01-11T20:42:47.366Z,98620.27
2023-01-11T20:45:14.424Z,98632.69
2023-01-11T20:47:41.699Z,98642.60
2023-01-11T20:50:09.413Z,98613.01
2023-01-11T20:52:38.975Z,98597.98
2023-01-11T20:55:06.855Z,98595.36
2023-01-11T20:57:34.025Z,98598.50
2023-01-11T21:00:01.215Z,98610.20
2023-01-11T21:02:28.607Z,98637.77
2023-01-11T21:04:57.248Z,98637.67
2023-01-11T21:07:24.399Z,98617.55
2023-01-11T21:09:51.877Z,98632.64
2023-01-11T21:12:19.940Z,98624.08
2023-01-11T21:14:47.233Z,98618.34
2023-01-11T21:17:14.613Z,98613.75
2023-01-11T21:19:47.550Z,98607.02
2023-01-11T21:22:14.564Z,98606.69
2023-01-11T21:24:41.588Z,98597.09
2023-01-11T21:27:08.739Z,98591.58
2023-01-11T21:29:36.092Z,98581.36
2023-01-11T21:32:03.148Z,98590.14
2023-01-11T21:34:30.270Z,98594.70
2023-01-11T21:36:57.393Z,98581.78
2023-01-11T21:39:24.721Z,98582.54
